Time;durP1;ratioP1;P1;durP2;ratioP2;P2;SDS_P1;SDS_P2;PMS_P1;PMS_P2;Temp;Humidity;BMP_temperature;BMP_pressure;BME280_temperature;BME280_humidity;BME280_pressure;Samples;Min_cycle;Max_cycle;Signal;HPM_P1;HPM_P2
2021/08/03 02:02:31;;;;;;;;;;;;;;;16.57;69.05;99714.50;1185682;23;20144;-78
2021/08/03 02:04:05;;;;;;;3.08;1.25;;;;;;;16.59;68.89;99720.53;2189286;40;20317;-77
2021/08/03 02:05:38;;;;;;;3.35;1.48;;;;;;;16.59;68.72;99724.09;2189874;40;20385;-77
2021/08/03 02:07:10;;;;;;;2.78;0.95;;;;;;;16.60;68.96;99724.91;2188131;40;20054;-79
2021/08/03 02:08:44;;;;;;;2.72;1.10;;;;;;;16.57;68.77;99726.13;2189735;40;20040;-78
2021/08/03 02:10:19;;;;;;;3.70;1.30;;;;;;;16.56;69.03;99719.06;2188414;40;20059;-77
2021/08/03 02:11:52;;;;;;;3.85;1.30;;;;;;;16.58;68.74;99717.00;2183526;40;20036;-78
2021/08/03 02:13:25;;;;;;;3.28;1.30;;;;;;;16.60;68.90;99708.72;2186335;40;20047;-78
2021/08/03 02:14:57;;;;;;;3.92;1.35;;;;;;;16.63;68.68;99713.72;2188096;40;20415;-78
2021/08/03 02:16:27;;;;;;;2.92;1.15;;;;;;;16.65;68.57;99717.91;2186436;40;20062;-77
2021/08/03 02:18:00;;;;;;;3.50;1.30;;;;;;;16.66;68.40;99711.47;2189168;40;20366;-78
2021/08/03 02:19:32;;;;;;;4.07;1.50;;;;;;;16.65;68.31;99707.09;2188963;40;20410;-78
2021/08/03 02:21:04;;;;;;;3.30;1.30;;;;;;;16.60;68.53;99708.72;2186361;40;20032;-77
2021/08/03 02:22:36;;;;;;;3.42;1.30;;;;;;;16.60;68.38;99706.88;2187851;40;20062;-77
2021/08/03 02:24:08;;;;;;;3.95;1.55;;;;;;;16.62;68.23;99696.72;2185822;40;20048;-81
2021/08/03 02:25:40;;;;;;;3.35;1.52;;;;;;;16.59;68.25;99697.09;2186264;40;20043;-78
2021/08/03 02:27:12;;;;;;;4.30;1.20;;;;;;;16.54;68.34;99696.81;2186288;40;20307;-78
2021/08/03 02:28:45;;;;;;;3.47;1.67;;;;;;;16.47;68.49;99693.22;2189064;40;20051;-78
2021/08/03 02:30:16;;;;;;;4.40;1.30;;;;;;;16.46;68.70;99695.09;2190848;40;20055;-77
2021/08/03 02:31:54;;;;;;;3.08;1.30;;;;;;;16.43;68.65;99692.78;2194052;40;20046;-77
2021/08/03 02:33:31;;;;;;;3.60;1.27;;;;;;;16.42;68.73;99698.38;2189979;40;20039;-78
2021/08/03 02:35:08;;;;;;;3.30;1.33;;;;;;;16.39;68.58;99691.47;2186953;40;20034;-78
2021/08/03 02:36:46;;;;;;;3.55;0.90;;;;;;;16.42;68.66;99690.28;2187555;40;20066;-78
2021/08/03 02:38:22;;;;;;;2.78;1.10;;;;;;;16.46;68.73;99689.72;2186844;40;20133;-78
2021/08/03 02:39:55;;;;;;;2.80;1.17;;;;;;;16.48;68.59;99681.41;2186556;40;20028;-78
2021/08/03 02:41:29;;;;;;;3.45;1.10;;;;;;;16.52;68.31;99686.22;2188548;40;20036;-77
2021/08/03 02:43:02;;;;;;;2.80;1.30;;;;;;;16.57;68.12;99688.34;2188585;40;20055;-78
2021/08/03 02:44:33;;;;;;;3.78;1.55;;;;;;;16.59;68.01;99680.06;2185319;40;20047;-78
2021/08/03 02:46:09;;;;;;;3.75;1.27;;;;;;;16.62;67.93;99685.06;2188803;40;20036;-77
2021/08/03 02:47:47;;;;;;;3.15;1.23;;;;;;;16.64;67.93;99678.44;2185707;40;20055;-78
2021/08/03 02:49:28;;;;;;;4.68;1.10;;;;;;;16.64;68.04;99683.84;2188622;40;20410;-77
2021/08/03 02:51:01;;;;;;;4.07;1.23;;;;;;;16.62;67.76;99683.22;2190957;40;20058;-77
2021/08/03 02:52:36;;;;;;;3.00;1.20;;;;;;;16.63;67.81;99681.34;2189141;40;20047;-77
2021/08/03 02:54:21;;;;;;;2.58;1.15;;;;;;;16.66;67.65;99681.81;2191082;40;20046;-77
2021/08/03 02:55:56;;;;;;;2.55;1.10;;;;;;;16.69;67.63;99677.88;2189453;40;20047;-78
2021/08/03 02:57:30;;;;;;;4.78;1.50;;;;;;;16.68;67.88;99676.19;2186718;40;20028;-78
2021/08/03 02:59:08;;;;;;;3.05;1.23;;;;;;;16.68;67.65;99677.06;2188997;40;20031;-78
2021/08/03 03:00:41;;;;;;;3.22;1.02;;;;;;;16.63;67.93;99682.19;2189620;40;20039;-78
2021/08/03 03:02:15;;;;;;;2.80;1.40;;;;;;;16.61;67.86;99680.72;2188118;40;20039;-79
2021/08/03 03:03:49;;;;;;;3.40;1.50;;;;;;;16.54;68.04;99672.53;2188942;40;20038;-78
2021/08/03 03:05:27;;;;;;;3.13;1.10;;;;;;;16.49;67.97;99680.41;2186150;40;20296;-78
2021/08/03 03:07:05;;;;;;;3.13;1.38;;;;;;;16.44;68.21;99677.41;2188242;40;20032;-78
2021/08/03 03:08:39;;;;;;;3.40;1.27;;;;;;;16.35;68.57;99682.94;2187209;40;20380;-78
2021/08/03 03:10:15;;;;;;;4.25;1.60;;;;;;;16.28;68.81;99687.44;2187530;40;20059;-78
2021/08/03 03:11:46;;;;;;;4.13;1.48;;;;;;;16.22;68.94;99685.50;2188442;40;20047;-78
2021/08/03 03:13:22;;;;;;;3.83;1.40;;;;;;;16.20;69.03;99682.16;2190701;40;20353;-78
2021/08/03 03:14:55;;;;;;;4.20;1.20;;;;;;;16.17;69.18;99687.94;2188160;40;20046;-78
2021/08/03 03:16:29;;;;;;;5.53;1.42;;;;;;;16.14;69.60;99685.63;2188065;40;20231;-78
2021/08/03 03:18:03;;;;;;;5.32;1.40;;;;;;;16.15;69.67;99690.00;2187446;40;20078;-78
2021/08/03 03:19:38;;;;;;;4.35;1.30;;;;;;;16.16;69.52;99695.19;2186297;40;20046;-78
2021/08/03 03:21:15;;;;;;;3.10;1.20;;;;;;;16.17;69.61;99687.94;2187520;40;20063;-78
2021/08/03 03:22:49;;;;;;;4.15;1.77;;;;;;;16.16;69.54;99694.34;2189014;40;20055;-78
2021/08/03 03:24:21;;;;;;;2.55;1.10;;;;;;;16.13;69.62;99689.34;2189750;40;20059;-78
2021/08/03 03:25:55;;;;;;;3.50;1.25;;;;;;;16.09;69.97;99682.66;2188421;40;20035;-78
2021/08/03 03:27:28;;;;;;;4.00;1.42;;;;;;;16.08;70.02;99684.53;2188035;40;20032;-78
2021/08/03 03:29:01;;;;;;;5.63;1.40;;;;;;;16.10;70.13;99679.78;2186988;40;20031;-78
2021/08/03 03:30:33;;;;;;;4.38;1.63;;;;;;;16.10;70.11;99684.31;2189213;40;20035;-78
2021/08/03 03:32:05;;;;;;;3.97;1.30;;;;;;;16.09;70.34;99674.56;2188812;40;20278;-78
2021/08/03 03:33:39;;;;;;;3.60;1.45;;;;;;;16.09;70.20;99680.81;2190399;40;20151;-79
2021/08/03 03:35:11;;;;;;;3.10;1.30;;;;;;;16.12;69.91;99679.59;2188563;40;20448;-78
2021/08/03 03:36:46;;;;;;;4.05;1.80;;;;;;;16.17;69.83;99677.16;2190865;40;20434;-79
2021/08/03 03:38:20;;;;;;;4.32;1.60;;;;;;;16.17;69.65;99671.75;2186553;40;20043;-78
2021/08/03 03:39:51;;;;;;;4.60;1.50;;;;;;;16.21;69.47;99678.44;2187091;40;20055;-80
2021/08/03 03:41:25;;;;;;;3.65;1.40;;;;;;;16.22;69.30;99669.34;2187321;40;20431;-80
2021/08/03 03:42:58;;;;;;;3.70;1.30;;;;;;;16.23;69.45;99673.72;2188242;40;20438;-79
2021/08/03 03:44:30;;;;;;;3.83;1.23;;;;;;;16.26;69.32;99681.41;2188886;40;20058;-79
2021/08/03 03:46:04;;;;;;;5.93;1.42;;;;;;;16.25;69.06;99679.72;2188972;40;20058;-79
2021/08/03 03:47:38;;;;;;;4.15;1.33;;;;;;;16.28;69.10;99667.75;2187309;40;20346;-79
2021/08/03 03:49:11;;;;;;;3.08;1.30;;;;;;;16.22;69.15;99669.34;2187643;40;20498;-78
2021/08/03 03:50:47;;;;;;;3.38;1.20;;;;;;;16.19;68.93;99670.56;2188049;40;20063;-79
2021/08/03 03:52:23;;;;;;;3.67;1.38;;;;;;;16.21;69.09;99667.66;2187701;40;20043;-78
2021/08/03 03:53:59;;;;;;;4.80;1.60;;;;;;;16.25;69.04;99665.41;2187557;40;20047;-78
2021/08/03 03:55:31;;;;;;;4.15;1.40;;;;;;;16.20;68.91;99666.81;2183678;40;20059;-78
2021/08/03 03:57:06;;;;;;;5.55;1.50;;;;;;;16.19;69.12;99667.00;2185146;40;20044;-78
2021/08/03 03:58:42;;;;;;;4.50;1.45;;;;;;;16.17;69.15;99672.59;2188571;40;20047;-78
2021/08/03 04:00:15;;;;;;;3.33;1.58;;;;;;;16.18;69.20;99668.03;2185308;40;20339;-78
2021/08/03 04:01:48;;;;;;;3.33;1.40;;;;;;;16.19;69.17;99669.72;2186838;40;20055;-79
2021/08/03 04:03:23;;;;;;;6.05;1.40;;;;;;;16.17;69.31;99666.34;2188246;40;20063;-78
2021/08/03 04:04:57;;;;;;;3.47;1.52;;;;;;;16.16;69.25;99670.06;2185991;40;20039;-78
2021/08/03 04:06:29;;;;;;;5.18;1.40;;;;;;;16.18;69.57;99662.63;2186916;40;20411;-78
2021/08/03 04:08:02;;;;;;;3.13;1.30;;;;;;;16.21;69.40;99664.97;2188281;40;20308;-78
2021/08/03 04:09:33;;;;;;;3.58;1.40;;;;;;;16.26;69.33;99659.81;2189469;40;20035;-79
2021/08/03 04:11:06;;;;;;;3.25;1.58;;;;;;;16.30;69.38;99661.13;2188794;40;20130;-78
2021/08/03 04:12:37;;;;;;;3.45;1.65;;;;;;;16.33;69.21;99663.44;2186272;40;20051;-79
2021/08/03 04:14:09;;;;;;;3.10;1.20;;;;;;;16.36;68.83;99667.63;2188281;40;20047;-78
2021/08/03 04:15:41;;;;;;;3.30;1.58;;;;;;;16.36;69.08;99663.03;2186503;40;20036;-78
2021/08/03 04:17:12;;;;;;;4.10;1.40;;;;;;;16.37;68.96;99667.41;2184300;40;20442;-78
2021/08/03 04:18:44;;;;;;;3.53;1.17;;;;;;;16.37;68.46;99659.31;2188133;40;20471;-78
2021/08/03 04:20:15;;;;;;;4.78;1.58;;;;;;;16.33;68.74;99666.13;2187498;40;20032;-78
2021/08/03 04:21:47;;;;;;;3.30;1.42;;;;;;;16.34;68.54;99664.25;2189265;40;20043;-78
2021/08/03 04:23:20;;;;;;;4.95;1.40;;;;;;;16.30;68.43;99655.72;2186813;40;20074;-79
2021/08/03 04:24:52;;;;;;;4.22;1.50;;;;;;;16.30;68.42;99652.19;2189652;40;20059;-78
2021/08/03 04:26:24;;;;;;;3.22;1.40;;;;;;;16.34;68.52;99646.22;2187779;40;20058;-79
2021/08/03 04:27:56;;;;;;;4.38;1.50;;;;;;;16.38;68.01;99641.28;2190367;40;20316;-79
2021/08/03 04:29:28;;;;;;;3.55;1.40;;;;;;;16.40;67.99;99647.31;2186767;40;20447;-79
2021/08/03 04:31:00;;;;;;;2.80;1.27;;;;;;;16.42;67.92;99642.56;2190810;40;20043;-78
2021/08/03 04:32:31;;;;;;;3.95;1.52;;;;;;;16.51;67.43;99645.97;2178006;40;20044;-79
2021/08/03 04:34:03;;;;;;;3.50;1.25;;;;;;;16.54;67.13;99645.56;2189170;40;20424;-79
2021/08/03 04:35:34;;;;;;;3.10;1.10;;;;;;;16.60;67.00;99649.34;2189339;40;20415;-78
2021/08/03 04:37:07;;;;;;;2.75;1.05;;;;;;;16.63;66.83;99647.09;2188378;40;20315;-79
2021/08/03 04:38:40;;;;;;;4.40;1.35;;;;;;;16.64;66.67;99651.47;2186963;40;20042;-78
2021/08/03 04:40:15;;;;;;;4.25;1.45;;;;;;;16.60;66.47;99650.19;2187762;40;20067;-79
2021/08/03 04:41:48;;;;;;;3.33;1.00;;;;;;;16.60;66.68;99655.59;2188270;40;20050;-78
2021/08/03 04:43:19;;;;;;;3.50;1.27;;;;;;;16.56;66.82;99654.31;2185465;40;20387;-78
2021/08/03 04:44:50;;;;;;;2.92;1.20;;;;;;;16.54;67.11;99653.66;2186642;40;20093;-79
2021/08/03 04:46:22;;;;;;;3.35;1.42;;;;;;;16.53;66.97;99654.72;2188557;40;20075;-79
2021/08/03 04:47:55;;;;;;;3.60;1.13;;;;;;;16.49;67.15;99653.41;2184801;40;20055;-79
2021/08/03 04:49:26;;;;;;;5.25;1.48;;;;;;;16.47;67.46;99661.72;2188655;40;20042;-78
2021/08/03 04:50:58;;;;;;;3.45;1.70;;;;;;;16.47;67.61;99653.63;2189782;40;20035;-78
2021/08/03 04:52:30;;;;;;;4.22;1.40;;;;;;;16.44;67.68;99661.22;2183861;40;20047;-79
2021/08/03 04:54:04;;;;;;;9.15;1.55;;;;;;;16.40;68.10;99657.28;2187863;40;20051;-78
2021/08/03 04:55:36;;;;;;;3.70;1.38;;;;;;;16.34;68.40;99658.88;2187310;40;20050;-78
2021/08/03 04:57:06;;;;;;;4.00;1.33;;;;;;;16.26;68.54;99665.22;2187213;40;20047;-78
2021/08/03 04:58:39;;;;;;;3.58;1.50;;;;;;;16.25;68.90;99663.53;2186067;40;20102;-78
2021/08/03 05:00:12;;;;;;;2.30;0.95;;;;;;;16.24;68.86;99659.19;2190611;40;20055;-79
2021/08/03 05:01:44;;;;;;;4.13;1.40;;;;;;;16.21;68.77;99651.47;2187027;40;20485;-78
2021/08/03 05:03:16;;;;;;;4.60;1.40;;;;;;;16.19;68.98;99658.91;2187681;40;20137;-78
2021/08/03 05:04:48;;;;;;;2.70;1.10;;;;;;;16.18;69.00;99651.84;2186414;40;20055;-79
2021/08/03 05:06:20;;;;;;;3.00;1.38;;;;;;;16.17;69.22;99650.19;2186007;40;20036;-79
2021/08/03 05:07:57;;;;;;;3.25;1.20;;;;;;;16.19;69.14;99642.75;2188274;40;20039;-79
2021/08/03 05:09:30;;;;;;;3.90;1.40;;;;;;;16.21;68.98;99646.09;2187768;40;20091;-79
2021/08/03 05:11:01;;;;;;;5.40;1.55;;;;;;;16.20;69.05;99649.81;2189554;40;20435;-79
2021/08/03 05:12:32;;;;;;;3.85;1.42;;;;;;;16.17;69.02;99642.09;2188986;40;20035;-79
2021/08/03 05:14:04;;;;;;;2.83;1.33;;;;;;;16.17;69.35;99650.19;2186265;40;20050;-80
2021/08/03 05:15:36;;;;;;;3.63;1.50;;;;;;;16.19;69.18;99650.84;2189184;40;20055;-79
2021/08/03 05:17:06;;;;;;;4.72;1.50;;;;;;;16.19;69.41;99648.13;2191463;40;20051;-79
2021/08/03 05:18:38;;;;;;;3.10;1.60;;;;;;;16.21;69.27;99638.81;2191257;40;20058;-78
2021/08/03 05:20:11;;;;;;;3.25;1.35;;;;;;;16.24;69.20;99648.41;2188925;40;20133;-78
2021/08/03 05:21:42;;;;;;;3.83;1.38;;;;;;;16.25;69.22;99652.75;2187803;40;20145;-79
2021/08/03 05:23:14;;;;;;;3.67;1.27;;;;;;;16.24;69.01;99647.56;2186826;40;20066;-79
2021/08/03 05:24:46;;;;;;;5.47;1.48;;;;;;;16.28;68.93;99638.91;2185619;40;20032;-78
2021/08/03 05:26:18;;;;;;;6.82;2.10;;;;;;;16.35;68.82;99647.06;2187537;40;20050;-79
2021/08/03 05:27:49;;;;;;;5.68;1.88;;;;;;;16.32;68.79;99648.28;2180240;40;20055;-79
2021/08/03 05:29:21;;;;;;;4.40;1.50;;;;;;;16.29;68.58;99654.06;2186914;40;20091;-78
2021/08/03 05:30:52;;;;;;;8.73;1.83;;;;;;;16.28;68.81;99651.56;2188805;40;20039;-79
2021/08/03 05:32:24;;;;;;;5.88;1.65;;;;;;;16.22;69.18;99647.75;2189697;40;20125;-80
2021/08/03 05:33:56;;;;;;;4.32;1.45;;;;;;;16.21;69.44;99646.91;2186198;40;20072;-79
2021/08/03 05:35:28;;;;;;;4.22;1.30;;;;;;;16.23;69.35;99649.44;2184134;40;20055;-79
2021/08/03 05:37:01;;;;;;;5.22;1.42;;;;;;;16.25;69.03;99660.84;2184809;40;20329;-79
2021/08/03 05:38:33;;;;;;;4.00;1.70;;;;;;;16.26;69.23;99649.03;2188032;40;20059;-79
2021/08/03 05:40:11;;;;;;;4.75;1.20;;;;;;;16.27;69.00;99655.28;2188733;40;20055;-79
2021/08/03 05:41:44;;;;;;;6.15;1.50;;;;;;;16.23;69.10;99652.13;2188142;40;20054;-79
2021/08/03 05:43:16;;;;;;;4.07;1.30;;;;;;;16.21;69.10;99648.78;2188250;40;20316;-79
2021/08/03 05:44:47;;;;;;;5.20;1.30;;;;;;;16.22;69.08;99647.75;2189011;40;20039;-79
2021/08/03 05:46:18;;;;;;;7.90;1.67;;;;;;;16.21;69.27;99652.31;2187102;40;20093;-79
2021/08/03 05:47:50;;;;;;;3.90;1.23;;;;;;;16.22;69.34;99653.16;2187401;40;20039;-79
2021/08/03 05:49:22;;;;;;;9.10;2.00;;;;;;;16.24;68.98;99643.00;2189765;40;20035;-80
2021/08/03 05:50:54;;;;;;;6.00;1.92;;;;;;;16.31;69.32;99646.59;2186301;40;20063;-79
2021/08/03 05:52:24;;;;;;;5.80;2.05;;;;;;;16.40;68.69;99654.56;2185941;40;20055;-79
2021/08/03 05:53:56;;;;;;;4.15;1.80;;;;;;;16.42;68.66;99647.13;2187781;40;20046;-79
2021/08/03 05:55:29;;;;;;;5.97;1.77;;;;;;;16.44;68.70;99655.84;2190502;40;20082;-78
2021/08/03 05:57:01;;;;;;;7.80;2.05;;;;;;;16.45;68.87;99652.13;2187420;40;20077;-79
2021/08/03 05:58:32;;;;;;;6.22;1.77;;;;;;;16.48;68.74;99647.16;2188974;40;20055;-79
2021/08/03 06:00:05;;;;;;;5.20;2.03;;;;;;;16.56;68.73;99654.31;2187599;40;20040;-79
2021/08/03 06:01:37;;;;;;;6.53;1.60;;;;;;;16.56;68.50;99657.00;2185488;40;20411;-79
2021/08/03 06:03:08;;;;;;;5.78;2.17;;;;;;;16.60;68.33;99652.91;2186395;40;20036;-79
2021/08/03 06:04:39;;;;;;;4.68;1.55;;;;;;;16.60;68.57;99649.34;2187988;40;20051;-79
2021/08/03 06:06:15;;;;;;;5.13;2.05;;;;;;;16.61;68.62;99651.88;2188998;40;20043;-79
2021/08/03 06:07:51;;;;;;;5.63;1.92;;;;;;;16.66;68.55;99649.41;2189029;40;20054;-79
2021/08/03 06:09:24;;;;;;;4.75;1.63;;;;;;;16.73;68.00;99651.31;2187906;40;20106;-79
2021/08/03 06:10:59;;;;;;;4.25;1.58;;;;;;;16.78;67.57;99648.91;2185823;40;20103;-79
2021/08/03 06:12:35;;;;;;;3.20;1.38;;;;;;;16.85;67.22;99638.97;2189164;40;20419;-79
2021/08/03 06:14:10;;;;;;;4.22;1.27;;;;;;;16.90;66.97;99638.38;2189514;40;20054;-80
2021/08/03 06:15:46;;;;;;;5.45;1.38;;;;;;;16.95;66.62;99642.19;2188568;40;20062;-79
2021/08/03 06:17:18;;;;;;;4.53;1.23;;;;;;;17.00;66.12;99641.63;2187000;40;20043;-79
2021/08/03 06:18:50;;;;;;;2.85;1.13;;;;;;;17.05;66.03;99647.25;2189977;40;20047;-79
2021/08/03 06:20:22;;;;;;;6.85;1.58;;;;;;;17.11;65.69;99643.78;2190514;40;20043;-80
2021/08/03 06:21:56;;;;;;;3.38;1.25;;;;;;;17.16;65.57;99643.19;2190007;40;20058;-79
2021/08/03 06:23:28;;;;;;;3.40;1.40;;;;;;;17.22;65.40;99644.25;2188990;40;20041;-78
2021/08/03 06:24:59;;;;;;;2.83;1.17;;;;;;;17.28;64.89;99641.59;2190584;40;20035;-78
2021/08/03 06:26:33;;;;;;;3.05;1.23;;;;;;;17.36;64.42;99645.19;2186249;40;20071;-78
2021/08/03 06:28:05;;;;;;;4.05;1.17;;;;;;;17.42;64.31;99642.50;2189123;40;20467;-78
2021/08/03 06:29:38;;;;;;;3.95;1.60;;;;;;;17.50;64.20;99641.50;2188247;40;20047;-79
2021/08/03 06:31:10;;;;;;;5.25;1.63;;;;;;;17.55;63.96;99641.75;2188186;40;20036;-79
2021/08/03 06:32:44;;;;;;;2.47;1.00;;;;;;;17.56;63.57;99637.16;2190482;40;20045;-79
2021/08/03 06:34:16;;;;;;;4.03;1.13;;;;;;;17.56;63.48;99642.56;2193298;40;20055;-80
2021/08/03 06:35:49;;;;;;;2.92;1.20;;;;;;;17.62;63.50;99633.66;2189799;40;20070;-79
2021/08/03 06:37:21;;;;;;;5.32;1.30;;;;;;;17.64;63.44;99645.09;2187334;40;20408;-79
2021/08/03 06:38:53;;;;;;;3.50;0.95;;;;;;;17.65;63.29;99646.75;2188368;40;20078;-79
2021/08/03 06:40:24;;;;;;;3.45;1.30;;;;;;;17.66;63.08;99647.63;2190873;40;20062;-80
2021/08/03 06:42:02;;;;;;;4.40;1.30;;;;;;;17.62;62.66;99642.59;2189714;40;20044;-79
2021/08/03 06:43:36;;;;;;;2.63;1.10;;;;;;;17.55;63.02;99643.59;2187175;40;20409;-77
2021/08/03 06:45:11;;;;;;;2.88;1.15;;;;;;;17.62;63.02;99644.47;2188792;40;20059;-77
2021/08/03 06:46:46;;;;;;;2.67;0.93;;;;;;;17.71;62.53;99655.94;2190660;40;20063;-79
2021/08/03 06:48:23;;;;;;;3.05;0.90;;;;;;;17.76;62.38;99639.94;2187512;40;20055;-77
2021/08/03 06:49:58;;;;;;;2.17;0.75;;;;;;;17.82;62.07;99639.16;2190525;40;20039;-79
2021/08/03 06:51:33;;;;;;;3.20;1.00;;;;;;;17.96;61.84;99637.34;2188299;40;20329;-78
2021/08/03 06:53:07;;;;;;;3.33;1.10;;;;;;;18.04;61.80;99639.88;2190108;40;20042;-79
2021/08/03 06:54:40;;;;;;;4.57;1.38;;;;;;;18.09;61.55;99639.25;2187551;40;20444;-79
2021/08/03 06:56:19;;;;;;;3.13;1.27;;;;;;;18.14;61.34;99633.25;2188419;40;20245;-79
2021/08/03 06:57:54;;;;;;;7.07;1.40;;;;;;;18.13;61.19;99636.97;2188394;40;20328;-79
2021/08/03 06:59:27;;;;;;;3.30;1.10;;;;;;;18.10;61.53;99635.53;2189262;40;20059;-80
2021/08/03 07:01:02;;;;;;;3.20;1.38;;;;;;;18.17;61.39;99632.84;2186272;40;20047;-79
2021/08/03 07:02:37;;;;;;;4.95;1.80;;;;;;;18.20;61.12;99637.81;2188526;40;20323;-80
2021/08/03 07:04:12;;;;;;;5.60;1.20;;;;;;;18.26;61.03;99633.47;2189893;40;20051;-78
2021/08/03 07:05:51;;;;;;;2.50;0.90;;;;;;;18.30;60.91;99626.63;2189394;40;20059;-79
2021/08/03 07:07:23;;;;;;;4.88;1.23;;;;;;;18.38;60.90;99634.53;2187722;40;20051;-79
2021/08/03 07:08:55;;;;;;;2.80;1.10;;;;;;;18.43;60.46;99629.31;2189619;40;20418;-79
2021/08/03 07:10:29;;;;;;;3.50;1.15;;;;;;;18.42;60.69;99633.06;2186969;40;20031;-78
2021/08/03 07:12:00;;;;;;;3.17;1.23;;;;;;;18.41;60.21;99634.13;2188956;40;20090;-79
2021/08/03 07:13:34;;;;;;;3.72;1.10;;;;;;;18.43;60.48;99623.91;2187044;40;20058;-79
2021/08/03 07:15:07;;;;;;;2.50;0.90;;;;;;;18.47;60.40;99622.47;2185500;40;20039;-79
2021/08/03 07:16:41;;;;;;;2.88;1.02;;;;;;;18.50;60.24;99632.91;2189266;40;20327;-79
2021/08/03 07:18:14;;;;;;;2.63;1.00;;;;;;;18.53;60.06;99627.03;2188568;40;20059;-80
2021/08/03 07:19:45;;;;;;;3.45;1.63;;;;;;;18.53;60.14;99629.75;2190212;40;20051;-79
2021/08/03 07:21:18;;;;;;;4.45;1.60;;;;;;;18.49;60.23;99631.22;2186216;40;20086;-79
2021/08/03 07:22:50;;;;;;;2.70;1.10;;;;;;;18.41;60.25;99626.00;2189087;40;20048;-78
2021/08/03 07:24:23;;;;;;;4.07;1.35;;;;;;;18.35;60.10;99630.38;2187865;40;20089;-79
2021/08/03 07:25:55;;;;;;;3.78;1.20;;;;;;;18.32;60.14;99632.66;2190154;40;20347;-79
2021/08/03 07:27:26;;;;;;;3.25;1.00;;;;;;;18.30;60.16;99627.44;2188344;40;20377;-79
2021/08/03 07:28:59;;;;;;;2.53;1.10;;;;;;;18.31;60.15;99628.28;2186111;40;20035;-80
2021/08/03 07:30:31;;;;;;;3.13;1.02;;;;;;;18.33;60.07;99634.31;2189033;40;20024;-79
2021/08/03 07:32:03;;;;;;;4.60;1.08;;;;;;;18.36;60.10;99629.34;2189052;40;20098;-80
2021/08/03 07:33:35;;;;;;;4.07;1.00;;;;;;;18.40;60.05;99632.47;2188594;40;20032;-79
2021/08/03 07:35:07;;;;;;;3.13;1.30;;;;;;;18.45;59.97;99635.38;2186865;40;20425;-80
2021/08/03 07:36:39;;;;;;;6.28;1.20;;;;;;;18.45;60.10;99634.56;2187882;40;20138;-79
2021/08/03 07:38:12;;;;;;;2.67;0.95;;;;;;;18.42;60.53;99637.66;2187840;40;20424;-78
2021/08/03 07:39:44;;;;;;;2.80;1.00;;;;;;;18.44;60.12;99641.81;2188881;40;20034;-80
2021/08/03 07:41:15;;;;;;;2.60;0.98;;;;;;;18.45;60.45;99632.66;2190651;40;20316;-80
2021/08/03 07:42:47;;;;;;;4.60;1.00;;;;;;;18.49;60.04;99633.94;2191579;40;20621;-78
2021/08/03 07:44:20;;;;;;;5.43;1.20;;;;;;;18.49;60.10;99631.22;2186374;40;20343;-79
2021/08/03 07:45:52;;;;;;;4.82;1.70;;;;;;;18.52;59.93;99630.78;2190089;40;20055;-78
2021/08/03 07:47:23;;;;;;;2.83;1.25;;;;;;;18.52;60.26;99628.09;2191108;40;20055;-79
2021/08/03 07:48:56;;;;;;;3.90;1.25;;;;;;;18.61;60.08;99631.44;2189578;40;20056;-79
2021/08/03 07:50:28;;;;;;;3.60;1.50;;;;;;;18.70;59.65;99634.78;2192327;40;20042;-78
2021/08/03 07:52:00;;;;;;;4.00;1.50;;;;;;;18.76;59.79;99635.78;2188619;40;20112;-78
2021/08/03 07:53:32;;;;;;;4.85;1.92;;;;;;;18.81;59.62;99638.72;2188261;40;20052;-79
2021/08/03 07:55:04;;;;;;;4.85;1.83;;;;;;;18.88;59.36;99646.84;2187467;40;20055;-79
2021/08/03 07:56:36;;;;;;;4.95;2.00;;;;;;;18.89;59.27;99645.81;2189770;40;20042;-80
2021/08/03 07:58:07;;;;;;;3.13;1.45;;;;;;;18.90;59.31;99648.31;2192926;40;20057;-79
2021/08/03 07:59:40;;;;;;;4.00;1.40;;;;;;;18.89;59.42;99648.53;2191413;40;20059;-79
2021/08/03 08:01:12;;;;;;;4.10;1.45;;;;;;;18.86;59.42;99649.75;2191024;40;20321;-79
2021/08/03 08:02:43;;;;;;;3.97;1.60;;;;;;;18.90;59.34;99644.75;2193126;40;20043;-79
2021/08/03 08:04:15;;;;;;;3.00;1.30;;;;;;;18.91;59.55;99641.00;2191960;40;20047;-79
2021/08/03 08:05:47;;;;;;;3.20;1.40;;;;;;;18.92;59.60;99648.09;2191112;40;20066;-79
2021/08/03 08:07:18;;;;;;;3.70;1.42;;;;;;;18.95;59.29;99655.81;2186826;40;20043;-80
2021/08/03 08:08:50;;;;;;;3.42;1.30;;;;;;;18.99;59.33;99646.22;2188134;40;20030;-79
2021/08/03 08:10:23;;;;;;;4.88;1.30;;;;;;;19.02;59.22;99649.38;2189982;40;20070;-79
2021/08/03 08:11:54;;;;;;;4.38;1.52;;;;;;;19.04;59.48;99656.44;2190276;40;20066;-79
2021/08/03 08:13:26;;;;;;;3.10;1.17;;;;;;;19.11;59.14;99649.97;2188901;40;20035;-78
2021/08/03 08:14:59;;;;;;;6.05;1.40;;;;;;;19.20;59.13;99655.16;2189343;40;20070;-79
2021/08/03 08:16:31;;;;;;;3.50;1.30;;;;;;;19.11;58.51;99658.09;2191546;40;20054;-80
2021/08/03 08:18:05;;;;;;;4.25;1.27;;;;;;;19.04;58.82;99660.00;2190499;40;20035;-79
2021/08/03 08:19:37;;;;;;;6.88;1.20;;;;;;;19.00;58.64;99667.69;2189944;40;20541;-79
2021/08/03 08:21:07;;;;;;;5.65;1.25;;;;;;;19.04;58.86;99662.69;2192317;40;20050;-78
2021/08/03 08:22:39;;;;;;;3.45;1.25;;;;;;;19.16;58.49;99652.03;2192383;40;20066;-79
2021/08/03 08:24:11;;;;;;;4.65;1.30;;;;;;;19.21;58.33;99659.53;2192308;40;20055;-79
2021/08/03 08:25:43;;;;;;;5.07;1.45;;;;;;;19.28;58.10;99661.22;2191697;40;20040;-78
2021/08/03 08:27:15;;;;;;;5.40;1.00;;;;;;;19.33;57.96;99657.84;2189204;40;20032;-79
2021/08/03 08:28:48;;;;;;;3.25;1.27;;;;;;;19.51;57.83;99664.47;2192757;40;20062;-80
2021/08/03 08:30:21;;;;;;;5.50;1.30;;;;;;;19.75;57.37;99660.22;2195882;40;20028;-79
2021/08/03 08:31:52;;;;;;;4.20;1.33;;;;;;;19.88;56.73;99665.66;2192263;40;20028;-79
2021/08/03 08:33:24;;;;;;;10.20;1.30;;;;;;;19.84;56.57;99664.38;2189957;40;20220;-79
2021/08/03 08:34:56;;;;;;;4.65;1.25;;;;;;;19.93;56.61;99657.69;2194030;40;20036;-80
2021/08/03 08:36:28;;;;;;;5.43;1.40;;;;;;;20.01;55.78;99664.75;2191677;40;20027;-78
2021/08/03 08:37:59;;;;;;;9.10;1.95;;;;;;;20.00;55.95;99663.09;2186849;40;20047;-79
2021/08/03 08:39:31;;;;;;;3.42;1.13;;;;;;;20.09;55.49;99667.22;2188351;40;20416;-78
2021/08/03 08:41:03;;;;;;;3.30;1.20;;;;;;;20.13;55.28;99655.91;2186026;40;20290;-79
2021/08/03 08:42:35;;;;;;;10.35;1.73;;;;;;;20.23;55.01;99656.25;2188265;40;20070;-79
2021/08/03 08:44:07;;;;;;;7.43;1.40;;;;;;;20.21;55.31;99656.50;2186766;40;20042;-79
2021/08/03 08:45:41;;;;;;;4.13;1.38;;;;;;;20.24;55.45;99658.78;2187060;40;20585;-79
2021/08/03 08:47:13;;;;;;;5.40;1.38;;;;;;;20.32;55.22;99660.38;2186312;40;20109;-79
2021/08/03 08:48:46;;;;;;;6.30;1.70;;;;;;;20.31;55.41;99664.16;2187054;40;20417;-79
2021/08/03 08:50:20;;;;;;;4.93;1.10;;;;;;;20.30;55.29;99664.38;2187076;40;20039;-79
2021/08/03 08:51:53;;;;;;;4.35;1.20;;;;;;;20.31;55.13;99661.44;2187147;40;20071;-79
2021/08/03 08:53:26;;;;;;;5.20;1.65;;;;;;;20.30;55.26;99667.94;2185967;40;20055;-79
2021/08/03 08:54:59;;;;;;;3.00;1.20;;;;;;;20.37;55.23;99671.44;2186992;40;20043;-79
2021/08/03 08:56:31;;;;;;;4.32;1.17;;;;;;;20.43;55.17;99664.31;2189436;40;20324;-79
2021/08/03 08:58:03;;;;;;;3.42;1.40;;;;;;;20.52;55.31;99662.97;2187682;40;20058;-79
2021/08/03 08:59:35;;;;;;;6.07;1.30;;;;;;;20.51;55.51;99669.47;2185169;40;20062;-79
2021/08/03 09:01:08;;;;;;;5.68;1.70;;;;;;;20.39;55.94;99666.63;2186637;40;20031;-79
2021/08/03 09:02:40;;;;;;;4.15;1.35;;;;;;;20.41;56.29;99680.78;2187527;40;20032;-79
2021/08/03 09:04:11;;;;;;;4.97;1.30;;;;;;;20.51;56.36;99668.63;2186210;40;20051;-79
2021/08/03 09:05:43;;;;;;;4.72;1.50;;;;;;;20.58;56.80;99669.41;2187615;40;20035;-80
2021/08/03 09:07:15;;;;;;;3.50;1.40;;;;;;;20.54;57.33;99674.47;2187121;40;20039;-79
2021/08/03 09:08:49;;;;;;;5.22;1.40;;;;;;;20.50;57.51;99675.94;2189917;40;20070;-79
2021/08/03 09:10:36;;;;;;;5.47;1.73;;;;;;;20.44;57.42;99684.13;2191242;40;20055;-79
2021/08/03 09:12:08;;;;;;;6.15;1.73;;;;;;;20.14;58.19;99684.69;2186540;40;20258;-79
2021/08/03 09:13:56;;;;;;;9.13;2.08;;;;;;;19.86;59.08;99696.72;2188117;40;20197;-79
2021/08/03 09:15:27;;;;;;;6.95;1.63;;;;;;;19.76;59.61;99695.25;2192059;40;20035;-79
2021/08/03 09:17:00;;;;;;;4.68;1.50;;;;;;;19.67;59.69;99696.53;2191233;40;20070;-80
2021/08/03 09:18:34;;;;;;;10.35;2.40;;;;;;;19.60;60.88;99701.16;2188530;40;20199;-80
2021/08/03 09:20:14;;;;;;;7.53;2.40;;;;;;;19.59;62.06;99702.19;2188762;40;20434;-79